createdAt,value
2017-12-26T01:39:42.239Z,1002.19
2017-12-26T01:39:42.800Z,1002.17
2017-12-26T01:39:43.395Z,1002.19
2017-12-26T01:39:43.995Z,1002.19
2017-12-26T01:39:44.594Z,1002.21
2017-12-26T01:39:45.193Z,1002.20
2017-12-26T01:39:45.795Z,1002.16
2017-12-26T01:39:46.398Z,1002.15
2017-12-26T01:39:46.994Z,1002.20
2017-12-26T01:39:47.593Z,1002.19
2017-12-26T01:39:48.195Z,1002.20
2017-12-26T01:39:48.796Z,1002.18
2017-12-26T01:40:47.873Z,1002.22
2017-12-26T01:40:48.466Z,1002.16
2017-12-26T01:40:49.067Z,1002.19
2017-12-26T01:40:49.665Z,1002.21
2017-12-26T01:40:50.268Z,1002.21
2017-12-26T01:40:50.863Z,1002.21
2017-12-26T01:40:51.469Z,1002.19
2017-12-26T01:40:52.066Z,1002.18
2017-12-26T01:40:52.664Z,1002.16
2017-12-26T01:40:53.266Z,1002.16
2017-12-26T01:40:53.867Z,1002.20
2017-12-26T01:40:54.463Z,1002.16
2017-12-26T01:40:55.065Z,1002.17
2017-12-26T01:40:55.663Z,1002.20
2017-12-26T01:40:56.267Z,1002.17
2017-12-26T01:40:56.861Z,1002.19
2017-12-26T01:42:10.339Z,1002.12
2017-12-26T01:42:10.901Z,1002.11
2017-12-26T01:42:11.504Z,1002.06
2017-12-26T01:42:12.102Z,1002.07
2017-12-26T01:42:12.700Z,1002.08
2017-12-26T01:42:13.301Z,1002.10
2017-12-26T01:42:13.901Z,1002.09
2017-12-26T01:42:14.510Z,1002.14
2017-12-26T01:43:09.512Z,1002.07
2017-12-26T01:43:10.087Z,1002.06
2017-12-26T01:43:10.685Z,1002.11
2017-12-26T01:43:11.292Z,1002.06
2017-12-26T01:43:11.885Z,1002.12
2017-12-26T01:43:12.484Z,1002.09
2017-12-26T01:43:13.101Z,1002.15
2017-12-26T01:44:08.081Z,1002.02
2017-12-26T01:44:08.661Z,1002.06
2017-12-26T01:44:09.263Z,1002.06
2017-12-26T01:44:09.861Z,1002.06
2017-12-26T01:44:10.460Z,1002.06
2017-12-26T01:44:11.059Z,1002.05
2017-12-26T01:45:05.513Z,1001.99
2017-12-26T01:45:06.109Z,1002.04
2017-12-26T01:45:06.709Z,1002.05
2017-12-26T01:45:07.308Z,1002.07
2017-12-26T01:45:07.907Z,1001.99
2017-12-26T01:45:08.511Z,1002.01
2017-12-26T01:45:09.116Z,1002.06
2017-12-26T01:46:05.114Z,1001.98
2017-12-26T01:46:05.706Z,1001.96
2017-12-26T01:46:06.304Z,1001.97
2017-12-26T01:46:06.906Z,1001.98
2017-12-26T01:46:07.506Z,1001.94
2017-12-26T01:46:08.105Z,1001.92
2017-12-26T01:47:50.209Z,1001.92
2017-12-26T01:47:50.770Z,1001.94
2017-12-26T01:47:51.370Z,1001.95
2017-12-26T01:47:51.968Z,1001.93
2017-12-26T01:47:52.568Z,1001.91
2017-12-26T01:47:53.168Z,1001.91
2017-12-26T01:47:53.776Z,1001.90
2017-12-26T01:47:54.373Z,1001.93
2017-12-26T01:47:54.973Z,1001.91
2017-12-26T01:47:55.566Z,1001.95
2017-12-26T01:47:56.166Z,1001.91
2017-12-26T01:47:56.766Z,1001.91
2017-12-26T01:47:57.364Z,1001.90
2017-12-26T01:52:00.239Z,1001.78
2017-12-26T01:52:00.836Z,1001.81
2017-12-26T01:52:01.434Z,1001.78
2017-12-26T01:52:54.951Z,1001.79
2017-12-26T01:52:55.515Z,1001.77
2017-12-26T01:52:56.115Z,1001.80
2017-12-26T01:52:56.715Z,1001.80
2017-12-26T01:52:57.313Z,1001.83
2017-12-26T01:52:57.915Z,1001.80
2017-12-26T01:52:58.522Z,1001.79
2017-12-26T01:52:59.114Z,1001.79
2017-12-26T01:53:55.658Z,1001.73
2017-12-26T01:53:56.239Z,1001.75
2017-12-26T01:53:56.838Z,1001.72
2017-12-26T01:55:04.865Z,1001.72
2017-12-26T01:55:05.463Z,1001.75
2017-12-26T01:55:06.060Z,1001.74
2017-12-26T01:55:06.662Z,1001.76
2017-12-26T01:55:07.260Z,1001.73
2017-12-26T01:55:07.862Z,1001.73
2017-12-26T01:55:08.460Z,1001.77
2017-12-26T01:55:09.064Z,1001.78
2017-12-26T01:55:09.659Z,1001.76
2017-12-26T01:55:10.260Z,1001.79
2017-12-26T01:55:10.860Z,1001.75
2017-12-26T01:55:11.460Z,1001.74
2017-12-26T01:55:12.063Z,1001.79
2017-12-26T01:55:12.659Z,1001.76
2017-12-26T01:55:13.261Z,1001.74
2017-12-26T01:55:13.858Z,1001.75
2017-12-26T01:55:14.458Z,1001.73
2017-12-26T01:56:09.480Z,1001.77
2017-12-26T01:56:10.076Z,1001.78
2017-12-26T01:56:10.675Z,1001.75
2017-12-26T01:56:11.280Z,1001.76
2017-12-26T01:56:11.876Z,1001.72
2017-12-26T01:56:12.477Z,1001.73
2017-12-26T01:57:06.519Z,1001.73
2017-12-26T01:57:07.114Z,1001.73
2017-12-26T01:57:07.715Z,1001.74
2017-12-26T01:57:08.314Z,1001.77
2017-12-26T01:57:08.913Z,1001.78
2017-12-26T01:57:09.514Z,1001.76
2017-12-26T01:57:10.128Z,1001.74
2017-12-26T01:57:10.715Z,1001.78
2017-12-26T01:58:04.201Z,1001.78
2017-12-26T01:58:04.772Z,1001.77
2017-12-26T01:58:05.367Z,1001.75
2017-12-26T01:58:05.969Z,1001.77
2017-12-26T01:58:06.565Z,1001.72
2017-12-26T01:58:07.166Z,1001.78
2017-12-26T01:58:07.765Z,1001.80
2017-12-26T01:58:08.365Z,1001.79
2017-12-26T01:59:19.434Z,1001.77
2017-12-26T01:59:20.031Z,1001.75
2017-12-26T01:59:20.630Z,1001.78
2017-12-26T01:59:21.229Z,1001.76
2017-12-26T01:59:21.830Z,1001.78
2017-12-26T01:59:22.432Z,1001.75
2017-12-26T01:59:23.029Z,1001.73
2017-12-26T01:59:23.635Z,1001.77
2017-12-26T01:59:24.228Z,1001.73
2017-12-26T01:59:24.835Z,1001.75
2017-12-26T01:59:25.431Z,1001.75
2017-12-26T01:59:26.029Z,1001.74
2017-12-26T02:00:19.543Z,1001.70
2017-12-26T02:00:20.140Z,1001.69
2017-12-26T02:00:20.740Z,1001.72
2017-12-26T02:00:21.340Z,1001.71
2017-12-26T02:00:21.940Z,1001.71
2017-12-26T02:00:22.539Z,1001.72
2017-12-26T02:00:23.139Z,1001.68
2017-12-26T02:00:23.740Z,1001.69
2017-12-26T02:01:30.413Z,1001.72
2017-12-26T02:01:31.002Z,1001.68
2017-12-26T02:01:31.602Z,1001.70
2017-12-26T02:01:32.203Z,1001.70
2017-12-26T02:01:32.802Z,1001.72
2017-12-26T02:01:33.402Z,1001.69
2017-12-26T02:01:34.002Z,1001.67
2017-12-26T02:02:27.549Z,1001.69
2017-12-26T02:02:28.141Z,1001.69
2017-12-26T02:02:28.742Z,1001.68
2017-12-26T02:02:29.342Z,1001.64
2017-12-26T02:02:29.940Z,1001.67
2017-12-26T02:02:30.543Z,1001.65
2017-12-26T02:02:31.141Z,1001.68
2017-12-26T02:02:31.741Z,1001.68
2017-12-26T02:03:25.742Z,1001.72
2017-12-26T02:03:26.306Z,1001.70
2017-12-26T02:03:26.904Z,1001.73
2017-12-26T02:03:27.504Z,1001.68
2017-12-26T02:03:28.104Z,1001.71
2017-12-26T02:03:28.706Z,1001.68
2017-12-26T02:03:29.302Z,1001.71
2017-12-26T02:04:30.338Z,1001.71
2017-12-26T02:04:30.918Z,1001.70
2017-12-26T02:04:31.517Z,1001.69
2017-12-26T02:04:32.117Z,1001.74
2017-12-26T02:04:32.716Z,1001.66
2017-12-26T02:04:33.317Z,1001.68
2017-12-26T02:04:33.916Z,1001.68
2017-12-26T02:04:34.517Z,1001.64
2017-12-26T02:04:35.135Z,1001.65
2017-12-26T02:04:35.717Z,1001.63
2017-12-26T02:04:36.318Z,1001.67
2017-12-26T02:04:36.916Z,1001.69
2017-12-26T02:05:33.408Z,1001.74
2017-12-26T02:05:33.998Z,1001.72
2017-12-26T02:05:34.604Z,1001.72
2017-12-26T02:06:28.602Z,1001.68
2017-12-26T02:06:29.192Z,1001.70
2017-12-26T02:06:29.792Z,1001.69
2017-12-26T02:06:30.390Z,1001.66
2017-12-26T02:06:30.989Z,1001.66
2017-12-26T02:06:31.592Z,1001.67
2017-12-26T02:06:32.190Z,1001.65
2017-12-26T02:07:27.173Z,1001.64
2017-12-26T02:07:27.769Z,1001.66
2017-12-26T02:07:28.365Z,1001.65
2017-12-26T02:07:28.965Z,1001.66
2017-12-26T02:07:29.563Z,1001.66
2017-12-26T02:07:30.165Z,1001.64
2017-12-26T02:08:25.640Z,1001.60
2017-12-26T02:08:26.239Z,1001.61
2017-12-26T02:08:26.856Z,1001.62
2017-12-26T02:08:27.436Z,1001.58
2017-12-26T02:08:28.036Z,1001.59
2017-12-26T02:08:28.634Z,1001.61
2017-12-26T02:08:29.235Z,1001.60
2017-12-26T02:09:25.780Z,1001.59
2017-12-26T02:09:26.344Z,1001.57
2017-12-26T02:09:26.945Z,1001.59
2017-12-26T02:10:20.946Z,1001.52
2017-12-26T02:10:21.542Z,1001.51
2017-12-26T02:10:22.140Z,1001.50
2017-12-26T02:10:22.738Z,1001.53
2017-12-26T02:10:23.339Z,1001.50
2017-12-26T02:10:23.939Z,1001.52
2017-12-26T02:10:24.538Z,1001.50
2017-12-26T02:11:18.084Z,1001.53
2017-12-26T02:11:18.684Z,1001.51
2017-12-26T02:11:19.287Z,1001.50
2017-12-26T02:11:19.880Z,1001.50
2017-12-26T02:11:20.481Z,1001.50
2017-12-26T02:11:21.082Z,1001.51
2017-12-26T02:11:21.678Z,1001.49
2017-12-26T02:11:22.289Z,1001.48
2017-12-26T02:12:23.311Z,1001.54
2017-12-26T02:12:23.910Z,1001.53
2017-12-26T02:12:24.508Z,1001.48
2017-12-26T02:12:25.107Z,1001.50
2017-12-26T02:12:25.709Z,1001.55
2017-12-26T02:12:26.308Z,1001.51
2017-12-26T02:12:26.907Z,1001.54
2017-12-26T02:12:27.509Z,1001.51
2017-12-26T02:12:28.108Z,1001.53
2017-12-26T02:12:28.706Z,1001.52
2017-12-26T02:12:29.306Z,1001.54
2017-12-26T02:12:29.905Z,1001.52
2017-12-26T02:13:30.898Z,1001.49
2017-12-26T02:13:31.497Z,1001.47
2017-12-26T02:13:32.093Z,1001.50
2017-12-26T02:13:32.692Z,1001.51
2017-12-26T02:13:33.291Z,1001.47
2017-12-26T02:13:33.893Z,1001.51
2017-12-26T02:13:34.492Z,1001.54
2017-12-26T02:13:35.092Z,1001.53
2017-12-26T02:13:35.692Z,1001.51
2017-12-26T02:13:36.292Z,1001.51
2017-12-26T02:13:36.892Z,1001.51
2017-12-26T02:13:37.491Z,1001.50
2017-12-26T02:14:31.034Z,1001.51
2017-12-26T02:14:31.604Z,1001.48
2017-12-26T02:14:32.203Z,1001.47
2017-12-26T02:14:32.804Z,1001.43
2017-12-26T02:14:33.401Z,1001.41
2017-12-26T02:14:34.003Z,1001.40
2017-12-26T02:14:34.606Z,1001.44
2017-12-26T02:14:35.202Z,1001.43
2017-12-26T02:15:30.197Z,1001.48
2017-12-26T02:15:30.790Z,1001.50
2017-12-26T02:15:31.389Z,1001.48
2017-12-26T02:15:31.989Z,1001.46
2017-12-26T02:15:32.589Z,1001.50
2017-12-26T02:15:33.197Z,1001.46
2017-12-26T02:16:30.200Z,1001.54
2017-12-26T02:16:30.798Z,1001.51
2017-12-26T02:16:31.399Z,1001.53
2017-12-26T02:17:25.393Z,1001.47
2017-12-26T02:17:25.991Z,1001.48
2017-12-26T02:17:26.590Z,1001.48
2017-12-26T02:17:27.191Z,1001.44
2017-12-26T02:17:27.789Z,1001.44
2017-12-26T02:17:28.390Z,1001.50
2017-12-26T02:17:28.989Z,1001.50
2017-12-26T02:18:23.969Z,1001.39
2017-12-26T02:18:24.565Z,1001.45
2017-12-26T02:18:25.162Z,1001.42
2017-12-26T02:18:25.763Z,1001.43
2017-12-26T02:18:26.363Z,1001.47
2017-12-26T02:18:26.965Z,1001.43
2017-12-26T02:18:27.562Z,1001.44
2017-12-26T02:19:21.134Z,1001.44
2017-12-26T02:19:21.704Z,1001.37
2017-12-26T02:19:22.304Z,1001.39
2017-12-26T02:19:22.905Z,1001.39
2017-12-26T02:19:23.504Z,1001.38
2017-12-26T02:19:24.103Z,1001.41
2017-12-26T02:19:24.707Z,1001.41
2017-12-26T02:19:25.316Z,1001.41
2017-12-26T02:20:18.762Z,1001.37
2017-12-26T02:20:19.356Z,1001.36
2017-12-26T02:20:19.957Z,1001.37
2017-12-26T02:20:20.555Z,1001.36
2017-12-26T02:20:21.155Z,1001.35
2017-12-26T02:20:21.756Z,1001.36
2017-12-26T02:20:22.358Z,1001.36
2017-12-26T02:20:22.958Z,1001.36
2017-12-26T02:21:16.417Z,1001.34
2017-12-26T02:21:17.008Z,1001.31
2017-12-26T02:21:17.608Z,1001.32
2017-12-26T02:21:18.208Z,1001.36
2017-12-26T02:21:18.807Z,1001.35
2017-12-26T02:21:19.409Z,1001.35
2017-12-26T02:21:20.016Z,1001.35
2017-12-26T02:21:20.607Z,1001.36
2017-12-26T02:22:19.084Z,1001.27
2017-12-26T02:22:19.677Z,1001.29
2017-12-26T02:22:20.276Z,1001.28
2017-12-26T02:22:20.876Z,1001.29
2017-12-26T02:22:21.477Z,1001.31
2017-12-26T02:22:22.076Z,1001.30
2017-12-26T02:22:22.676Z,1001.29
2017-12-26T02:22:23.287Z,1001.27
2017-12-26T02:22:23.895Z,1001.29
2017-12-26T02:22:24.475Z,1001.30
2017-12-26T02:22:25.076Z,1001.28
2017-12-26T02:22:25.676Z,1001.28
2017-12-26T02:22:26.276Z,1001.29
2017-12-26T02:22:26.877Z,1001.27
2017-12-26T02:22:27.483Z,1001.28
2017-12-26T02:22:28.076Z,1001.31
2017-12-26T02:54:44.738Z,1000.59
2017-12-26T02:54:45.299Z,1000.60
2017-12-26T02:54:45.897Z,1000.63
2017-12-26T02:54:46.512Z,1000.61
2017-12-26T02:54:47.097Z,1000.62
2017-12-26T02:54:47.697Z,1000.63
2017-12-26T02:54:48.297Z,1000.61
2017-12-26T02:54:48.897Z,1000.62
2017-12-26T02:54:49.513Z,1000.62
2017-12-26T02:54:50.610Z,1000.59
2017-12-26T02:54:51.117Z,1000.58
2017-12-26T02:56:26.080Z,1000.69
2017-12-26T02:56:26.667Z,1000.66
2017-12-26T02:56:27.275Z,1000.67
2017-12-26T02:56:27.867Z,1000.65
2017-12-26T02:56:28.467Z,1000.67
2017-12-26T02:56:29.068Z,1000.67
2017-12-26T02:58:41.873Z,1000.61
2017-12-26T02:58:42.465Z,1000.57
2017-12-26T02:58:43.063Z,1000.58
2017-12-26T02:58:43.664Z,1000.59
2017-12-26T02:58:44.263Z,1000.56
2017-12-26T02:58:44.861Z,1000.56
2017-12-26T02:58:45.461Z,1000.58
2017-12-26T02:58:46.061Z,1000.60
2017-12-26T02:58:46.666Z,1000.60
2017-12-26T02:58:47.261Z,1000.58
2017-12-26T02:58:47.862Z,1000.60
2017-12-26T02:58:48.461Z,1000.63
2017-12-26T02:59:49.983Z,1000.60
2017-12-26T02:59:50.547Z,1000.61
2017-12-26T02:59:51.147Z,1000.60
2017-12-26T02:59:51.751Z,1000.61
2017-12-26T02:59:52.345Z,1000.59
2017-12-26T02:59:52.945Z,1000.64
2017-12-26T02:59:53.545Z,1000.62
2017-12-26T02:59:54.153Z,1000.61
2017-12-26T02:59:54.744Z,1000.64
2017-12-26T02:59:55.344Z,1000.57
2017-12-26T02:59:55.946Z,1000.61
2017-12-26T02:59:56.547Z,1000.61
2017-12-26T03:01:17.630Z,1000.61
2017-12-26T03:01:18.205Z,1000.62
2017-12-26T03:01:18.802Z,1000.60
2017-12-26T03:01:19.401Z,1000.58
2017-12-26T03:01:20.001Z,1000.52
2017-12-26T03:01:20.599Z,1000.52
2017-12-26T03:01:21.204Z,1000.55
2017-12-26T03:01:21.807Z,1000.54
2017-12-26T03:01:22.399Z,1000.51
2017-12-26T03:01:22.999Z,1000.52
2017-12-26T03:01:23.601Z,1000.48
2017-12-26T03:01:24.202Z,1000.49
2017-12-26T03:02:18.237Z,1000.51
2017-12-26T03:02:18.825Z,1000.47
2017-12-26T03:02:19.424Z,1000.51
2017-12-26T03:02:20.024Z,1000.52
2017-12-26T03:02:20.623Z,1000.52
2017-12-26T03:02:21.221Z,1000.51
2017-12-26T03:02:21.827Z,1000.51
2017-12-26T03:03:16.802Z,1000.56
2017-12-26T03:03:17.396Z,1000.52
2017-12-26T03:03:17.997Z,1000.52
2017-12-26T03:03:18.596Z,1000.56
2017-12-26T03:03:19.196Z,1000.52
2017-12-26T03:03:19.799Z,1000.57
2017-12-26T03:04:41.386Z,1000.51
2017-12-26T03:04:41.981Z,1000.53
2017-12-26T03:04:42.581Z,1000.48
2017-12-26T03:04:43.205Z,1000.54
2017-12-26T03:04:43.780Z,1000.50
2017-12-26T03:04:44.380Z,1000.48
2017-12-26T03:04:44.979Z,1000.53
2017-12-26T03:04:45.579Z,1000.52
2017-12-26T03:04:46.177Z,1000.52
2017-12-26T03:04:46.778Z,1000.50
2017-12-26T03:04:47.378Z,1000.47
2017-12-26T03:04:47.979Z,1000.50
2017-12-26T03:06:02.407Z,1000.41
2017-12-26T03:06:02.979Z,1000.43
2017-12-26T03:06:03.578Z,1000.43
2017-12-26T03:06:04.179Z,1000.48
2017-12-26T03:06:04.777Z,1000.43
2017-12-26T03:06:05.379Z,1000.42
2017-12-26T03:06:05.977Z,1000.46
2017-12-26T03:06:06.578Z,1000.43
2017-12-26T03:07:11.709Z,1000.43
2017-12-26T03:07:12.306Z,1000.44
2017-12-26T03:07:12.905Z,1000.44
2017-12-26T03:07:13.516Z,1000.44
2017-12-26T03:07:14.105Z,1000.42
2017-12-26T03:08:29.125Z,1000.45
2017-12-26T03:08:29.720Z,1000.43
2017-12-26T03:08:30.321Z,1000.40
2017-12-26T03:08:30.919Z,1000.42
2017-12-26T03:08:31.519Z,1000.42
2017-12-26T03:08:32.122Z,1000.45
2017-12-26T03:10:34.951Z,1000.39
2017-12-26T03:10:35.510Z,1000.38
2017-12-26T03:10:36.124Z,1000.39
2017-12-26T03:10:36.710Z,1000.39
2017-12-26T03:10:37.312Z,1000.37
2017-12-26T03:10:37.910Z,1000.38
2017-12-26T03:10:38.509Z,1000.40
2017-12-26T03:10:39.108Z,1000.39
2017-12-26T03:10:39.710Z,1000.38
2017-12-26T03:10:40.309Z,1000.45
2017-12-26T03:10:40.910Z,1000.43
2017-12-26T03:10:41.509Z,1000.45
2017-12-26T03:11:35.606Z,1000.40
2017-12-26T03:11:36.194Z,1000.39
2017-12-26T03:11:36.793Z,1000.37
2017-12-26T03:11:37.398Z,1000.38
2017-12-26T03:11:37.996Z,1000.37
2017-12-26T03:11:38.593Z,1000.39
2017-12-26T03:11:39.194Z,1000.36
2017-12-26T03:11:39.794Z,1000.40
2017-12-26T03:12:38.267Z,1000.33
2017-12-26T03:12:38.862Z,1000.33
2017-12-26T03:12:39.464Z,1000.35
2017-12-26T03:12:40.059Z,1000.34
2017-12-26T03:12:40.662Z,1000.31
2017-12-26T03:12:41.267Z,1000.31
2017-12-26T03:12:41.860Z,1000.33
2017-12-26T03:12:42.465Z,1000.35
2017-12-26T03:12:43.064Z,1000.36
2017-12-26T03:12:43.660Z,1000.34
2017-12-26T03:12:44.262Z,1000.33
2017-12-26T03:12:44.862Z,1000.32
2017-12-26T03:12:45.460Z,1000.33
2017-12-26T03:12:46.059Z,1000.32
2017-12-26T03:12:46.658Z,1000.32
2017-12-26T03:12:47.258Z,1000.36
2017-12-26T04:08:43.285Z,998.73
2017-12-26T04:08:43.852Z,998.71
2017-12-26T04:08:44.452Z,998.71
2017-12-26T04:08:45.051Z,998.68
2017-12-26T04:08:45.651Z,998.70
2017-12-26T04:08:46.250Z,998.70
2017-12-26T04:08:46.851Z,998.77
2017-12-26T04:08:47.460Z,998.74
2017-12-26T04:08:48.053Z,998.75
2017-12-26T04:08:48.650Z,998.74
2017-12-26T04:08:49.252Z,998.82
2017-12-26T04:08:49.850Z,998.74
2017-12-26T04:11:02.722Z,998.68
2017-12-26T04:11:03.285Z,998.74
2017-12-26T04:11:03.884Z,998.74
2017-12-26T04:11:04.482Z,998.74
2017-12-26T04:11:05.083Z,998.71
2017-12-26T04:11:05.684Z,998.73
2017-12-26T04:11:06.282Z,998.69
2017-12-26T04:11:06.886Z,998.74
2017-12-26T04:11:07.482Z,998.71
2017-12-26T04:11:08.085Z,998.71
2017-12-26T04:11:08.681Z,998.68
2017-12-26T04:11:09.283Z,998.70
2017-12-26T04:13:52.165Z,998.54
2017-12-26T04:13:52.733Z,998.54
2017-12-26T04:13:53.333Z,998.52
2017-12-26T04:13:53.936Z,998.51
2017-12-26T04:13:54.537Z,998.51
2017-12-26T04:13:55.131Z,998.54
2017-12-26T04:13:55.732Z,998.56
2017-12-26T04:13:56.332Z,998.54
2017-12-26T04:13:56.930Z,998.53
2017-12-26T04:13:57.531Z,998.55
2017-12-26T04:14:52.004Z,998.54
2017-12-26T04:14:52.598Z,998.50
2017-12-26T04:14:53.197Z,998.47
2017-12-26T04:14:53.797Z,998.50
2017-12-26T04:14:54.396Z,998.52
2017-12-26T04:14:54.998Z,998.53
2017-12-26T04:14:55.597Z,998.50
2017-12-26T04:14:56.195Z,998.52
2017-12-26T04:15:51.191Z,998.45
2017-12-26T04:15:51.787Z,998.45
2017-12-26T04:15:52.389Z,998.44
2017-12-26T04:15:52.985Z,998.44
2017-12-26T04:15:53.583Z,998.46
2017-12-26T04:15:54.184Z,998.46
2017-12-26T04:15:54.785Z,998.44
2017-12-26T04:16:48.228Z,998.40
2017-12-26T04:16:48.823Z,998.40
2017-12-26T04:16:49.422Z,998.41
2017-12-26T04:16:50.022Z,998.39
2017-12-26T04:16:50.621Z,998.42
2017-12-26T04:16:51.224Z,998.36
2017-12-26T04:16:51.822Z,998.38
2017-12-26T04:16:52.422Z,998.35
2017-12-26T04:19:04.748Z,998.38
2017-12-26T04:19:05.310Z,998.39
2017-12-26T04:19:05.908Z,998.35
2017-12-26T04:19:06.509Z,998.36
2017-12-26T04:19:07.110Z,998.40
2017-12-26T04:19:07.707Z,998.37
2017-12-26T04:19:08.314Z,998.37
2017-12-26T04:19:08.910Z,998.39
2017-12-26T04:19:09.507Z,998.39
2017-12-26T04:19:10.106Z,998.38
2017-12-26T04:19:10.707Z,998.39
2017-12-26T04:19:11.308Z,998.33
2017-12-26T04:21:44.163Z,998.46
2017-12-26T04:21:44.755Z,998.51
2017-12-26T04:21:45.354Z,998.46
2017-12-26T04:21:45.955Z,998.47
2017-12-26T04:21:46.555Z,998.48
2017-12-26T04:21:47.155Z,998.48
2017-12-26T04:21:47.753Z,998.48
2017-12-26T04:21:48.356Z,998.49
2017-12-26T04:21:48.955Z,998.47
2017-12-26T04:21:49.560Z,998.48
2017-12-26T04:21:50.157Z,998.47
2017-12-26T04:21:50.753Z,998.47
2017-12-26T04:22:44.790Z,998.39
2017-12-26T04:22:45.382Z,998.40
2017-12-26T04:22:45.983Z,998.40
2017-12-26T04:22:46.583Z,998.37
2017-12-26T04:22:47.183Z,998.43
2017-12-26T04:22:47.786Z,998.45
2017-12-26T04:22:48.382Z,998.40
2017-12-26T04:22:48.982Z,998.41
2017-12-26T04:23:43.984Z,998.38
2017-12-26T04:23:44.571Z,998.41
2017-12-26T04:23:45.169Z,998.39
2017-12-26T04:23:45.774Z,998.38
2017-12-26T04:23:46.369Z,998.39
2017-12-26T04:23:46.969Z,998.38
2017-12-26T04:24:41.039Z,998.31
2017-12-26T04:24:41.608Z,998.29
2017-12-26T04:24:42.207Z,998.29
2017-12-26T04:24:42.807Z,998.31
2017-12-26T04:24:43.407Z,998.27
2017-12-26T04:24:44.006Z,998.27
2017-12-26T04:24:44.607Z,998.28
2017-12-26T04:24:45.210Z,998.29
2017-12-26T04:25:46.241Z,998.23
2017-12-26T04:25:46.836Z,998.24
2017-12-26T04:25:47.434Z,998.21
2017-12-26T04:25:48.038Z,998.20
2017-12-26T04:25:48.635Z,998.24
2017-12-26T04:25:49.235Z,998.22
2017-12-26T04:25:49.834Z,998.22
2017-12-26T04:25:50.433Z,998.20
2017-12-26T04:25:51.034Z,998.22
2017-12-26T04:25:51.634Z,998.21
2017-12-26T04:25:52.234Z,998.21
2017-12-26T04:25:52.834Z,998.20
2017-12-26T04:27:13.896Z,998.19
2017-12-26T04:27:14.492Z,998.19
2017-12-26T04:27:15.094Z,998.18
2017-12-26T04:27:15.693Z,998.16
2017-12-26T04:27:16.291Z,998.15
2017-12-26T04:27:16.894Z,998.16
2017-12-26T04:27:17.491Z,998.17
2017-12-26T04:27:18.090Z,998.14
2017-12-26T04:27:18.689Z,998.14
2017-12-26T04:27:19.288Z,998.17
2017-12-26T04:27:19.895Z,998.16
2017-12-26T04:27:20.489Z,998.13
2017-12-26T04:28:24.963Z,998.09
2017-12-26T04:28:25.558Z,998.08
2017-12-26T04:28:26.157Z,998.06
2017-12-26T04:28:26.758Z,998.10
2017-12-26T04:28:27.356Z,998.11
2017-12-26T04:28:27.963Z,998.06
2017-12-26T05:05:46.025Z,997.22
2017-12-26T05:05:46.608Z,997.28
2017-12-26T05:05:47.195Z,997.21
2017-12-26T05:07:15.831Z,997.20
2017-12-26T05:07:16.401Z,997.20
2017-12-26T05:07:17.000Z,997.20
2017-12-26T05:07:17.600Z,997.17
2017-12-26T05:07:18.203Z,997.19
2017-12-26T05:07:18.799Z,997.18
2017-12-26T05:07:19.399Z,997.24
2017-12-26T05:07:20.003Z,997.20
2017-12-26T05:07:20.655Z,997.15
2017-12-26T05:07:21.199Z,997.18
2017-12-26T05:07:21.799Z,997.18
2017-12-26T05:07:22.400Z,997.22
2017-12-26T05:07:22.998Z,997.21
2017-12-26T05:07:23.597Z,997.20
2017-12-26T05:07:24.200Z,997.21
2017-12-26T05:07:24.798Z,997.24
2017-12-26T05:10:27.103Z,997.06
2017-12-26T05:10:27.706Z,997.04
2017-12-26T05:10:28.296Z,997.07
2017-12-26T05:10:28.896Z,997.05
2017-12-26T05:10:29.495Z,997.03
2017-12-26T05:10:30.095Z,997.06
2017-12-26T05:10:30.696Z,997.05
2017-12-26T05:10:31.296Z,997.06
2017-12-26T05:10:31.901Z,997.07
2017-12-26T05:10:32.494Z,997.03
2017-12-26T05:10:33.093Z,997.07
2017-12-26T05:10:33.694Z,997.06
2017-12-26T05:11:46.792Z,997.03
2017-12-26T05:11:47.356Z,997.07
2017-12-26T05:11:47.955Z,997.07
2017-12-26T05:11:48.554Z,997.06
2017-12-26T05:11:49.153Z,997.05
2017-12-26T05:11:49.754Z,997.02
2017-12-26T05:11:50.356Z,997.04
2017-12-26T05:11:50.955Z,997.03
2017-12-26T05:11:51.553Z,997.04
2017-12-26T05:11:52.156Z,997.06
2017-12-26T05:14:26.799Z,996.98
2017-12-26T05:14:27.302Z,997.01
2017-12-26T05:14:27.900Z,997.03
2017-12-26T05:14:28.500Z,997.02
2017-12-26T05:14:29.101Z,997.00
2017-12-26T05:14:29.699Z,997.00
2017-12-26T05:14:30.300Z,997.00
2017-12-26T05:14:30.900Z,996.99
2017-12-26T05:15:25.388Z,996.97
2017-12-26T05:15:25.983Z,996.98
2017-12-26T05:15:26.582Z,996.98
2017-12-26T05:15:27.180Z,996.97
2017-12-26T05:15:27.782Z,996.97
2017-12-26T05:15:28.387Z,996.96
2017-12-26T05:15:28.979Z,996.96
2017-12-26T05:15:29.581Z,997.00
2017-12-26T05:16:35.122Z,997.01
2017-12-26T05:16:35.719Z,996.97
2017-12-26T05:16:36.316Z,996.99
2017-12-26T05:16:36.916Z,997.01
2017-12-26T05:16:37.516Z,997.02
2017-12-26T05:17:34.548Z,996.97
2017-12-26T05:17:35.109Z,996.99
2017-12-26T05:17:35.709Z,996.95
2017-12-26T05:18:30.737Z,996.96
2017-12-26T05:18:31.328Z,996.98
2017-12-26T05:18:31.927Z,996.96
2017-12-26T05:18:32.526Z,996.95
2017-12-26T05:18:33.131Z,997.00
2017-12-26T05:18:33.726Z,997.01
2017-12-26T05:18:34.327Z,996.97
2017-12-26T05:20:46.626Z,997.05
2017-12-26T05:20:47.213Z,997.03
2017-12-26T05:20:47.812Z,997.06
2017-12-26T05:20:48.412Z,997.01
2017-12-26T05:20:49.065Z,997.04
2017-12-26T05:20:49.635Z,997.02
2017-12-26T05:20:50.237Z,997.07
2017-12-26T05:20:50.820Z,997.04
2017-12-26T05:20:51.436Z,997.06
2017-12-26T05:20:52.033Z,997.05
2017-12-26T05:20:52.644Z,997.06
2017-12-26T05:20:53.227Z,997.07
2017-12-26T05:21:47.774Z,997.02
2017-12-26T05:21:48.347Z,997.01
2017-12-26T05:21:48.945Z,997.02
2017-12-26T05:21:49.545Z,997.03
2017-12-26T05:21:50.145Z,997.02
2017-12-26T05:21:50.747Z,996.96
2017-12-26T05:21:51.345Z,996.99
2017-12-26T05:22:54.957Z,996.93
2017-12-26T05:22:55.521Z,996.94
2017-12-26T05:22:56.121Z,996.92
2017-12-26T05:22:56.721Z,996.93
2017-12-26T05:22:57.321Z,996.98
2017-12-26T05:22:57.918Z,996.94
2017-12-26T05:22:58.519Z,996.95
2017-12-26T05:22:59.126Z,996.94
2017-12-26T05:23:54.112Z,996.94
2017-12-26T05:23:54.709Z,996.92
2017-12-26T05:23:55.311Z,996.91
2017-12-26T05:23:55.906Z,996.95
2017-12-26T05:23:56.507Z,996.96
2017-12-26T05:23:57.108Z,996.94
2017-12-26T05:23:57.707Z,996.92
2017-12-26T05:25:04.260Z,996.87
2017-12-26T05:25:04.855Z,996.87
2017-12-26T05:25:05.454Z,996.85
2017-12-26T05:25:58.944Z,996.85
2017-12-26T05:25:59.536Z,996.81
2017-12-26T05:26:00.137Z,996.86
2017-12-26T05:26:00.740Z,996.81
2017-12-26T05:26:01.338Z,996.86
2017-12-26T05:26:01.938Z,996.84
2017-12-26T05:26:02.535Z,996.82
2017-12-26T05:26:03.137Z,996.82
2017-12-26T05:30:27.550Z,996.62
2017-12-26T05:30:28.056Z,996.63
2017-12-26T05:30:28.658Z,996.64
2017-12-26T05:30:29.254Z,996.66
2017-12-26T05:30:29.853Z,996.62
2017-12-26T05:30:30.454Z,996.66
2017-12-26T05:30:31.054Z,996.63
2017-12-26T05:30:31.652Z,996.65
2017-12-26T06:07:32.257Z,995.57
2017-12-26T06:07:32.821Z,995.54
2017-12-26T06:07:33.431Z,995.53
2017-12-26T06:07:34.016Z,995.52
2017-12-26T06:07:34.614Z,995.54
2017-12-26T06:07:35.214Z,995.54
2017-12-26T06:07:35.813Z,995.54
2017-12-26T06:07:36.416Z,995.50
2017-12-26T06:07:37.014Z,995.51
2017-12-26T06:07:37.615Z,995.53
2017-12-26T06:07:38.213Z,995.48
2017-12-26T06:07:38.815Z,995.50
2017-12-26T06:09:51.669Z,995.52
2017-12-26T06:09:52.248Z,995.48
2017-12-26T06:09:52.846Z,995.55
2017-12-26T06:09:53.446Z,995.53
2017-12-26T06:09:54.045Z,995.51
2017-12-26T06:09:54.645Z,995.56
2017-12-26T06:09:55.244Z,995.55
2017-12-26T06:09:55.847Z,995.54
2017-12-26T06:09:56.445Z,995.54
2017-12-26T06:09:57.043Z,995.52
2017-12-26T06:09:57.644Z,995.50
2017-12-26T06:09:58.243Z,995.55
2017-12-26T06:12:11.089Z,995.52
2017-12-26T06:12:11.680Z,995.54